Time;durP1;ratioP1;P1;durP2;ratioP2;P2;SDS_P1;SDS_P2;PMS_P1;PMS_P2;Temp;Humidity;BMP_temperature;BMP_pressure;BME280_temperature;BME280_humidity;BME280_pressure;Samples;Min_cycle;Max_cycle;Signal;HPM_P1;HPM_P2
2022/05/05 00:01:18;;;;;;;24.30;9.00;;;;;;;11.36;38.91;99322.23;105566;1283;112161;-67
2022/05/05 00:03:47;;;;;;;25.10;9.90;;;;;;;11.30;38.97;99323.36;105601;1282;95173;-68
2022/05/05 00:06:15;;;;;;;25.00;9.90;;;;;;;11.24;38.99;99319.89;105614;1283;107758;-66
2022/05/05 00:08:44;;;;;;;22.90;9.50;;;;;;;11.16;39.00;99319.22;105493;1283;98039;-66
2022/05/05 00:16:46;;;;;;;22.90;10.20;;;;;;;11.03;39.46;99320.29;105572;1282;97906;-68
2022/05/05 00:19:14;;;;;;;24.10;10.20;;;;;;;10.97;39.38;99317.66;105625;1282;108396;-66
2022/05/05 00:21:42;;;;;;;22.70;9.60;;;;;;;10.92;39.45;99320.85;105607;1282;98001;-67
2022/05/05 00:24:11;;;;;;;24.30;9.40;;;;;;;10.87;39.47;99321.55;105584;1283;95209;-67
2022/05/05 00:26:40;;;;;;;22.60;9.30;;;;;;;10.82;39.52;99324.78;105579;1283;112069;-66
2022/05/05 00:29:09;;;;;;;24.50;9.80;;;;;;;10.75;39.65;99321.55;105545;1283;98583;-67
2022/05/05 00:31:40;;;;;;;20.50;9.00;;;;;;;10.69;39.67;99322.11;105614;1283;107571;-68
2022/05/05 00:34:09;;;;;;;23.40;9.20;;;;;;;10.66;39.69;99326.58;105609;1283;97893;-68
2022/05/05 00:36:38;;;;;;;22.10;9.20;;;;;;;10.61;39.81;99323.35;105642;1283;98095;-66
2022/05/05 00:39:07;;;;;;;24.60;9.30;;;;;;;10.58;39.94;99323.06;105593;1283;112116;-66
2022/05/05 00:41:40;;;;;;;23.10;9.30;;;;;;;10.54;39.98;99319.79;105657;1283;97872;-65
2022/05/05 00:44:08;;;;;;;22.10;8.90;;;;;;;10.50;40.08;99320.05;105642;1283;107588;-69
2022/05/05 00:46:38;;;;;;;20.30;9.60;;;;;;;10.46;40.07;99322.80;105596;1283;98074;-67
2022/05/05 00:49:07;;;;;;;21.90;9.00;;;;;;;10.42;40.24;99322.89;105634;1283;97007;-68
2022/05/05 00:51:35;;;;;;;20.20;8.60;;;;;;;10.37;40.32;99320.33;105640;1283;111467;-67
2022/05/05 00:54:07;;;;;;;23.10;9.40;;;;;;;10.34;40.31;99318.81;105601;1283;97987;-66
2022/05/05 00:56:36;;;;;;;19.40;7.80;;;;;;;10.30;40.41;99321.70;105585;1283;107787;-67
2022/05/05 00:59:06;;;;;;;22.20;9.30;;;;;;;10.25;40.49;99319.15;105420;1282;98055;-67
2022/05/05 01:01:35;;;;;;;23.40;8.80;;;;;;;10.23;40.51;99316.30;105594;1283;98670;-68
2022/05/05 01:04:07;;;;;;;20.80;8.70;;;;;;;10.20;40.61;99318.80;105545;1283;112854;-68
2022/05/05 01:06:37;;;;;;;22.50;9.60;;;;;;;10.16;40.68;99322.45;105645;1283;97896;-68
2022/05/05 01:09:08;;;;;;;23.50;9.20;;;;;;;10.10;40.76;99329.91;105554;1281;108321;-69
2022/05/05 01:11:36;;;;;;;22.30;9.10;;;;;;;10.07;40.78;99337.55;105394;1283;97981;-67
2022/05/05 01:14:05;;;;;;;23.00;9.10;;;;;;;10.07;40.87;99343.30;105605;1283;98008;-67
2022/05/05 01:16:35;;;;;;;19.10;7.90;;;;;;;10.03;40.90;99341.52;105626;1282;111975;-68
2022/05/05 01:19:04;;;;;;;21.20;8.60;;;;;;;10.01;41.04;99341.14;105608;1282;97736;-67
2022/05/05 01:21:32;;;;;;;22.80;9.10;;;;;;;9.98;41.03;99334.60;105554;1283;108727;-70
2022/05/05 01:24:00;;;;;;;20.30;8.40;;;;;;;9.93;41.21;99334.76;105518;1283;98006;-66
2022/05/05 01:29:16;;;;;;;24.50;9.90;;;;;;;9.87;41.36;99336.41;105587;1282;111318;-66
2022/05/05 01:31:46;;;;;;;20.60;8.20;;;;;;;9.85;41.42;99340.27;105600;1283;97932;-67
2022/05/05 01:34:14;;;;;;;24.40;9.40;;;;;;;9.82;41.42;99343.27;105646;1283;107840;-69
2022/05/05 01:36:43;;;;;;;23.50;9.10;;;;;;;9.80;41.58;99342.54;105461;1284;96634;-66
2022/05/05 01:39:12;;;;;;;25.70;10.10;;;;;;;9.76;41.71;99344.16;105624;1283;97943;-69
2022/05/05 01:41:41;;;;;;;18.10;8.00;;;;;;;9.74;41.69;99338.13;105623;1283;111996;-71
2022/05/05 01:44:09;;;;;;;22.00;9.40;;;;;;;9.73;41.83;99338.92;105631;1283;97881;-71
2022/05/05 01:46:39;;;;;;;22.40;9.10;;;;;;;9.68;41.85;99338.85;105639;1283;108715;-69
2022/05/05 01:49:09;;;;;;;21.00;8.40;;;;;;;9.68;41.99;99334.60;105590;1283;95300;-68
2022/05/05 01:51:38;;;;;;;22.40;8.30;;;;;;;9.68;42.12;99334.43;105546;1283;97947;-67
2022/05/05 01:54:06;;;;;;;20.30;8.30;;;;;;;9.67;42.14;99325.62;105620;1283;112146;-67
2022/05/05 01:56:34;;;;;;;22.90;8.00;;;;;;;9.68;42.24;99323.09;105560;1282;98028;-68
2022/05/05 01:59:03;;;;;;;28.70;8.50;;;;;;;9.69;42.30;99326.04;105323;1283;108471;-65
2022/05/05 02:01:33;;;;;;;21.80;8.00;;;;;;;9.70;42.42;99328.31;105653;1283;99000;-66
2022/05/05 02:04:01;;;;;;;20.70;8.00;;;;;;;9.71;42.49;99328.77;105604;1283;97916;-68
2022/05/05 02:06:29;;;;;;;23.00;8.90;;;;;;;9.71;42.60;99330.86;105645;1283;111953;-67
2022/05/05 02:08:58;;;;;;;20.30;8.10;;;;;;;9.71;42.56;99325.73;105610;1283;97892;-67
2022/05/05 02:11:27;;;;;;;21.50;8.70;;;;;;;9.72;42.63;99326.39;105573;1283;108091;-67
2022/05/05 02:13:55;;;;;;;21.30;8.30;;;;;;;9.72;42.69;99329.06;105566;1283;98032;-67
2022/05/05 02:16:23;;;;;;;20.10;7.90;;;;;;;9.70;42.62;99332.73;105606;1283;97889;-66
2022/05/05 02:18:52;;;;;;;21.90;7.80;;;;;;;9.69;42.78;99331.55;105526;1282;112082;-68
2022/05/05 02:21:20;;;;;;;19.50;7.60;;;;;;;9.70;42.96;99332.91;105579;1283;97981;-67
2022/05/05 02:23:49;;;;;;;21.30;7.70;;;;;;;9.70;43.00;99335.40;105263;1284;108438;-69
2022/05/05 02:26:17;;;;;;;22.60;8.20;;;;;;;9.71;43.07;99334.10;105592;1283;97914;-70
2022/05/05 02:28:46;;;;;;;17.70;7.40;;;;;;;9.72;43.04;99337.91;105363;1283;96364;-68
2022/05/05 02:31:16;;;;;;;18.70;7.90;;;;;;;9.73;43.04;99338.22;105631;1283;112036;-67
2022/05/05 02:33:45;;;;;;;21.20;8.10;;;;;;;9.73;43.25;99336.95;105658;1282;97903;-67
2022/05/05 02:39:00;;;;;;;21.30;8.70;;;;;;;9.72;43.54;99331.69;105619;1283;95288;-69
2022/05/05 02:41:28;;;;;;;23.30;8.10;;;;;;;9.72;43.30;99330.84;105611;1282;97973;-69
2022/05/05 02:43:56;;;;;;;18.90;7.60;;;;;;;9.72;43.47;99330.33;105593;1283;111962;-69
2022/05/05 02:46:25;;;;;;;26.40;8.20;;;;;;;9.71;43.54;99326.11;105589;1283;98005;-67
2022/05/05 02:48:53;;;;;;;20.40;7.60;;;;;;;9.71;43.69;99329.67;105593;1283;108333;-67
2022/05/05 02:51:21;;;;;;;20.40;7.90;;;;;;;9.69;43.52;99332.43;105535;1283;98459;-67
2022/05/05 02:56:36;;;;;;;19.50;7.50;;;;;;;9.69;43.90;99326.74;105631;1283;111967;-68
2022/05/05 02:59:04;;;;;;;20.40;8.40;;;;;;;9.69;43.89;99326.94;105639;1283;95523;-67
2022/05/05 03:01:34;;;;;;;17.60;6.90;;;;;;;9.67;44.00;99323.85;105615;1283;108504;-67
2022/05/05 03:04:02;;;;;;;15.80;7.00;;;;;;;9.65;43.90;99328.98;105601;1282;98086;-70
2022/05/05 03:06:30;;;;;;;20.30;7.30;;;;;;;9.62;43.97;99330.91;105633;1283;97968;-68
2022/05/05 03:08:59;;;;;;;20.10;8.30;;;;;;;9.60;44.01;99334.91;105592;1283;111893;-67
2022/05/05 03:11:26;;;;;;;22.90;7.00;;;;;;;9.59;44.08;99338.71;105644;1283;95219;-66
2022/05/05 03:13:54;;;;;;;18.20;7.40;;;;;;;9.58;44.13;99345.56;105573;1283;108206;-67
2022/05/05 03:16:22;;;;;;;18.90;7.20;;;;;;;9.57;44.25;99351.08;105580;1283;97923;-69
2022/05/05 03:18:50;;;;;;;24.70;7.40;;;;;;;9.56;44.29;99355.75;105615;1283;98030;-67
2022/05/05 03:21:18;;;;;;;19.90;7.20;;;;;;;9.55;44.18;99351.21;105630;1283;111912;-68
2022/05/05 03:23:47;;;;;;;22.70;8.10;;;;;;;9.54;44.36;99351.09;105639;1283;97882;-68
2022/05/05 03:26:15;;;;;;;20.40;7.70;;;;;;;9.52;44.33;99351.19;105637;1283;108509;-65
2022/05/05 03:28:44;;;;;;;18.70;7.70;;;;;;;9.51;44.41;99351.08;105644;1283;96501;-67
2022/05/05 03:31:13;;;;;;;17.40;7.00;;;;;;;9.51;44.51;99352.84;105666;1283;97900;-70
2022/05/05 03:33:43;;;;;;;21.50;7.90;;;;;;;9.52;44.54;99349.28;105629;1283;112419;-68
2022/05/05 03:36:11;;;;;;;20.10;7.30;;;;;;;9.51;44.66;99351.79;105620;1283;98022;-69
2022/05/05 03:38:39;;;;;;;22.30;8.20;;;;;;;9.52;44.71;99352.98;105618;1283;108378;-69
2022/05/05 03:41:07;;;;;;;20.70;7.70;;;;;;;9.53;44.73;99355.21;105628;1282;97956;-69
2022/05/05 03:43:36;;;;;;;20.00;7.80;;;;;;;9.55;44.76;99355.65;104997;1283;828065;-68
2022/05/05 03:46:08;;;;;;;21.50;7.70;;;;;;;9.58;44.83;99354.23;105580;1282;111394;-69
2022/05/05 03:48:36;;;;;;;18.60;7.30;;;;;;;9.60;45.12;99350.53;105355;1284;97871;-67
2022/05/05 03:51:04;;;;;;;18.80;6.90;;;;;;;9.61;45.05;99348.48;105551;1283;107369;-68
2022/05/05 03:53:33;;;;;;;20.30;7.50;;;;;;;9.61;45.14;99354.55;105593;1283;97970;-67
2022/05/05 03:56:04;;;;;;;19.80;7.70;;;;;;;9.58;45.07;99353.73;105611;1283;97954;-70
2022/05/05 03:58:33;;;;;;;19.00;7.10;;;;;;;9.57;45.31;99354.79;105464;1284;112186;-67
2022/05/05 04:01:01;;;;;;;22.40;7.20;;;;;;;9.61;45.23;99360.58;105549;1283;96284;-68
2022/05/05 04:03:31;;;;;;;21.60;7.90;;;;;;;9.63;45.42;99356.53;105571;1283;108346;-68
2022/05/05 04:06:06;;;;;;;19.10;7.20;;;;;;;9.66;45.47;99355.80;105298;1285;97988;-69
2022/05/05 04:08:38;;;;;;;19.30;7.90;;;;;;;9.68;45.50;99364.55;105435;1283;97910;-69
2022/05/05 04:11:07;;;;;;;24.00;7.40;;;;;;;9.68;45.53;99362.73;105597;1283;111401;-68
2022/05/05 04:13:36;;;;;;;20.80;8.00;;;;;;;9.72;45.54;99364.50;105601;1283;97916;-69
2022/05/05 04:16:10;;;;;;;19.90;7.60;;;;;;;9.74;45.63;99363.98;105625;1283;107752;-64
2022/05/05 04:18:40;;;;;;;23.70;7.70;;;;;;;9.78;45.70;99364.39;105590;1283;97881;-67
2022/05/05 04:21:08;;;;;;;20.30;7.10;;;;;;;9.83;45.80;99363.91;105617;1283;98295;-68
2022/05/05 04:23:37;;;;;;;20.20;6.70;;;;;;;9.89;45.74;99362.85;105591;1283;110435;-72
2022/05/05 04:26:12;;;;;;;17.00;6.70;;;;;;;9.91;45.77;99365.41;105555;1283;97970;-70
2022/05/05 04:28:45;;;;;;;20.30;7.20;;;;;;;9.94;45.86;99372.27;105531;1283;108454;-68
2022/05/05 04:31:16;;;;;;;19.30;6.90;;;;;;;9.93;45.84;99374.41;105582;1283;97875;-69
2022/05/05 04:33:45;;;;;;;22.70;7.90;;;;;;;9.95;45.92;99376.10;105600;1283;98452;-69
2022/05/05 04:36:14;;;;;;;19.00;7.70;;;;;;;10.00;45.99;99379.33;105560;1283;112059;-68
2022/05/05 04:38:43;;;;;;;19.10;7.30;;;;;;;10.06;46.03;99377.70;105600;1283;97899;-68
2022/05/05 04:41:12;;;;;;;18.00;7.60;;;;;;;10.11;46.12;99375.53;105564;1283;108339;-71
2022/05/05 04:43:40;;;;;;;21.00;7.80;;;;;;;10.18;46.17;99373.21;105565;1283;98496;-71
2022/05/05 04:46:09;;;;;;;20.80;8.10;;;;;;;10.24;46.23;99374.73;105588;1283;97967;-68
2022/05/05 04:48:38;;;;;;;22.10;7.60;;;;;;;10.32;46.27;99380.96;105403;1284;110863;-69
2022/05/05 04:51:06;;;;;;;20.50;7.90;;;;;;;10.39;46.36;99379.77;105614;1283;97913;-70
2022/05/05 04:53:35;;;;;;;24.40;7.90;;;;;;;10.46;46.42;99375.47;105612;1283;108267;-70
2022/05/05 04:56:03;;;;;;;21.80;8.10;;;;;;;10.52;46.39;99376.65;105616;1283;97869;-70
2022/05/05 04:58:34;;;;;;;23.90;8.30;;;;;;;10.57;46.43;99376.45;105597;1283;97895;-70
2022/05/05 05:01:03;;;;;;;20.40;8.00;;;;;;;10.66;46.49;99374.47;105041;1286;114227;-70
2022/05/05 05:03:32;;;;;;;21.00;7.70;;;;;;;10.74;46.43;99376.96;105426;1283;97968;-71
2022/05/05 05:06:04;;;;;;;20.30;8.20;;;;;;;10.81;46.60;99377.34;105513;1283;107779;-68
2022/05/05 05:08:33;;;;;;;19.60;7.70;;;;;;;10.90;46.52;99379.38;105530;1283;97893;-70
2022/05/05 05:11:01;;;;;;;20.00;7.10;;;;;;;10.99;46.57;99383.73;105317;1284;97857;-69
2022/05/05 05:13:29;;;;;;;21.30;7.10;;;;;;;11.04;46.52;99383.06;105568;1283;111288;-71
2022/05/05 05:15:57;;;;;;;20.10;7.90;;;;;;;11.10;46.73;99386.17;105535;1283;97999;-70
2022/05/05 05:18:25;;;;;;;21.40;7.40;;;;;;;11.21;46.75;99383.64;105228;1283;108434;-70
2022/05/05 05:20:54;;;;;;;20.00;7.50;;;;;;;11.33;46.88;99385.46;105510;1282;97886;-69
2022/05/05 05:23:23;;;;;;;17.50;7.30;;;;;;;11.45;46.85;99388.33;105553;1283;97995;-71
2022/05/05 05:25:51;;;;;;;19.20;8.00;;;;;;;11.59;46.90;99392.18;105571;1283;111485;-71
2022/05/05 05:28:19;;;;;;;19.80;7.80;;;;;;;11.70;46.93;99391.73;105527;1283;97311;-70
2022/05/05 05:30:48;;;;;;;21.40;7.60;;;;;;;11.82;46.93;99395.66;105575;1283;107445;-71
2022/05/05 05:33:17;;;;;;;18.60;7.40;;;;;;;11.97;46.95;99396.05;105652;1283;97989;-70
2022/05/05 05:35:46;;;;;;;16.70;7.00;;;;;;;12.09;46.95;99391.61;105642;1283;97877;-69
2022/05/05 05:38:19;;;;;;;19.10;7.10;;;;;;;12.24;46.97;99394.27;105545;1283;111416;-69
2022/05/05 05:40:48;;;;;;;21.90;7.40;;;;;;;12.38;47.13;99387.71;105288;1283;95898;-70
2022/05/05 05:43:16;;;;;;;20.00;7.60;;;;;;;12.51;46.97;99388.30;105081;1283;107735;-70
2022/05/05 05:45:44;;;;;;;19.30;7.10;;;;;;;12.62;47.09;99387.10;105270;1283;98088;-68
2022/05/05 05:48:13;;;;;;;20.60;7.70;;;;;;;12.73;46.90;99391.08;105528;1283;95314;-71
2022/05/05 05:50:41;;;;;;;23.60;7.50;;;;;;;12.84;46.97;99392.95;105467;1283;112031;-72
2022/05/05 05:53:09;;;;;;;16.60;6.80;;;;;;;12.94;46.97;99392.02;105356;1283;98229;-70
2022/05/05 05:55:36;;;;;;;21.30;7.20;;;;;;;13.04;47.07;99394.23;105409;1283;107845;-70
2022/05/05 05:58:04;;;;;;;17.30;6.50;;;;;;;13.18;47.09;99393.00;105409;1283;96409;-70
2022/05/05 06:00:33;;;;;;;16.80;6.80;;;;;;;13.32;47.08;99396.55;105410;1283;97881;-68
2022/05/05 06:05:49;;;;;;;20.30;6.40;;;;;;;13.58;46.82;99392.95;105331;1283;97982;-69
2022/05/05 06:08:19;;;;;;;17.30;7.00;;;;;;;13.61;46.90;99397.30;105409;1283;108386;-69
2022/05/05 06:10:47;;;;;;;19.00;6.90;;;;;;;13.71;46.94;99402.41;105373;1283;97893;-68
2022/05/05 06:13:15;;;;;;;16.00;6.60;;;;;;;13.82;46.95;99406.88;105417;1283;97868;-69
2022/05/05 06:15:43;;;;;;;19.50;6.80;;;;;;;13.87;46.95;99410.40;105419;1283;112127;-69
2022/05/05 06:18:11;;;;;;;22.90;6.60;;;;;;;13.96;46.99;99404.84;105516;1283;97872;-69
2022/05/05 06:20:39;;;;;;;18.90;6.90;;;;;;;14.07;46.92;99410.55;107030;1281;108353;-68
2022/05/05 06:23:07;;;;;;;19.00;6.60;;;;;;;14.18;47.03;99406.98;105828;1283;97977;-68
2022/05/05 06:25:34;;;;;;;16.90;6.50;;;;;;;14.26;47.13;99405.96;105564;1283;96455;-69
2022/05/05 06:28:04;;;;;;;16.10;6.10;;;;;;;14.28;46.98;99408.66;107095;1281;112270;-68
2022/05/05 06:30:32;;;;;;;19.40;6.70;;;;;;;14.35;47.07;99414.55;105898;1283;98099;-69
2022/05/05 06:33:01;;;;;;;22.40;7.70;;;;;;;14.45;47.00;99416.21;105530;1283;108328;-69
2022/05/05 06:35:29;;;;;;;20.40;7.20;;;;;;;14.55;47.13;99411.98;106124;1282;97959;-70
2022/05/05 06:37:58;;;;;;;20.20;6.80;;;;;;;14.66;47.08;99408.96;107037;1282;96151;-68
2022/05/05 06:40:26;;;;;;;22.00;7.50;;;;;;;14.71;47.17;99408.52;106901;1281;111324;-69
2022/05/05 06:42:56;;;;;;;22.50;7.20;;;;;;;14.77;47.13;99405.36;105890;1281;97970;-71
2022/05/05 06:45:24;;;;;;;20.90;7.10;;;;;;;14.82;47.00;99404.54;105490;1283;107791;-71
2022/05/05 06:47:52;;;;;;;16.40;6.80;;;;;;;14.86;47.10;99404.19;105371;1281;97851;-69
2022/05/05 06:50:21;;;;;;;22.20;7.10;;;;;;;14.92;47.10;99402.88;105350;1284;95268;-69
2022/05/05 06:52:52;;;;;;;19.80;7.20;;;;;;;14.97;47.02;99404.55;105657;1281;111977;-68
2022/05/05 06:55:20;;;;;;;18.20;6.20;;;;;;;15.02;47.11;99403.27;105581;1281;97918;-69
2022/05/05 06:57:48;;;;;;;18.30;6.80;;;;;;;15.10;47.10;99408.60;105557;1281;108339;-68
2022/05/05 07:00:18;;;;;;;18.50;6.70;;;;;;;15.21;46.99;99408.63;105618;1281;98029;-68
2022/05/05 07:02:47;;;;;;;17.10;6.50;;;;;;;15.26;46.90;99409.36;105461;1283;95380;-68
2022/05/05 07:05:23;;;;;;;19.10;6.20;;;;;;;16.04;46.11;99411.52;105250;1284;112100;-69
2022/05/05 07:07:51;;;;;;;19.50;5.90;;;;;;;17.78;44.97;99413.52;105591;1283;97786;-71
2022/05/05 07:13:09;;;;;;;18.90;6.10;;;;;;;21.30;44.97;99404.28;105322;1281;95884;-72
2022/05/05 07:15:42;;;;;;;19.00;7.70;;;;;;;22.80;44.80;99398.51;105587;1282;95250;-71
2022/05/05 07:18:10;;;;;;;29.80;15.50;;;;;;;24.30;44.63;99400.30;105488;1283;111336;-73
2022/05/05 07:20:38;;;;;;;17.80;7.50;;;;;;;25.81;44.38;99402.91;105650;1281;97920;-72
2022/05/05 07:23:10;;;;;;;20.30;5.80;;;;;;;27.17;43.96;99401.88;105557;1281;107549;-71
2022/05/05 07:25:41;;;;;;;14.70;5.40;;;;;;;28.47;43.71;99399.08;105616;1283;97994;-70
2022/05/05 07:28:10;;;;;;;13.50;4.70;;;;;;;29.67;43.17;99397.34;105645;1281;97846;-74
2022/05/05 07:30:37;;;;;;;17.40;4.70;;;;;;;30.64;42.89;99395.69;105629;1281;111384;-70
2022/05/05 07:33:06;;;;;;;17.10;5.80;;;;;;;31.58;42.64;99393.07;105721;1283;98382;-74
2022/05/05 07:35:38;;;;;;;15.40;4.70;;;;;;;32.42;42.20;99388.88;105753;1283;108285;-71
2022/05/05 07:38:08;;;;;;;16.20;5.40;;;;;;;32.82;41.31;99390.33;105652;1283;97915;-69
2022/05/05 07:40:36;;;;;;;12.30;4.60;;;;;;;33.44;41.36;99388.83;105664;1281;97864;-70
2022/05/05 07:43:04;;;;;;;8.20;4.10;;;;;;;34.04;40.78;99395.89;105621;1283;111320;-68
2022/05/05 07:45:35;;;;;;;14.10;5.30;;;;;;;34.48;40.30;99394.73;105690;1281;95779;-71
2022/05/05 07:48:03;;;;;;;8.40;3.80;;;;;;;34.71;40.41;99393.73;105466;1283;107771;-70
2022/05/05 07:50:31;;;;;;;11.90;4.00;;;;;;;34.07;38.48;99395.34;105427;1283;97998;-71
2022/05/05 07:52:59;;;;;;;10.20;3.70;;;;;;;31.74;35.81;99393.17;105467;1284;97993;-71
2022/05/05 07:55:26;;;;;;;8.30;2.90;;;;;;;30.49;35.69;99403.71;105649;1281;111410;-71
2022/05/05 07:57:54;;;;;;;5.00;3.00;;;;;;;29.63;34.71;99403.46;105601;1281;98463;-70
2022/05/05 08:00:23;;;;;;;7.70;3.10;;;;;;;28.95;33.73;99404.96;105645;1283;107877;-71
2022/05/05 08:02:51;;;;;;;10.50;3.60;;;;;;;28.45;34.65;99405.02;105524;1283;97888;-70
2022/05/05 08:05:19;;;;;;;4.10;2.60;;;;;;;28.05;33.44;99408.19;105649;1283;98094;-71
2022/05/05 08:07:49;;;;;;;6.20;2.80;;;;;;;26.61;31.68;99414.02;105410;1283;111566;-69
2022/05/05 08:10:20;;;;;;;6.40;3.20;;;;;;;25.40;31.46;99415.06;105539;1284;98474;-69
2022/05/05 08:12:49;;;;;;;8.30;3.10;;;;;;;24.89;30.77;99418.62;105511;1284;106685;-69
2022/05/05 08:15:17;;;;;;;8.00;2.80;;;;;;;23.87;30.41;99414.73;105506;1283;97949;-70
2022/05/05 08:17:47;;;;;;;7.60;3.20;;;;;;;22.92;30.52;99414.36;105711;1283;97883;-70
2022/05/05 08:20:16;;;;;;;6.70;3.40;;;;;;;22.31;30.41;99418.35;105498;1283;111430;-72
2022/05/05 08:22:45;;;;;;;9.90;3.60;;;;;;;22.03;30.16;99419.61;105682;1281;98278;-71
2022/05/05 08:30:47;;;;;;;5.80;2.90;;;;;;;21.28;30.28;99415.40;105455;1283;97959;-69
2022/05/05 08:33:14;;;;;;;10.90;3.30;;;;;;;20.85;29.73;99417.55;105607;1282;111473;-69
2022/05/05 08:35:43;;;;;;;6.90;3.20;;;;;;;20.50;29.97;99416.17;105622;1284;97903;-69
2022/05/05 08:38:13;;;;;;;4.40;3.10;;;;;;;20.63;29.62;99418.92;105516;1283;108523;-71
2022/05/05 08:40:42;;;;;;;10.10;3.80;;;;;;;20.32;29.68;99416.84;105545;1284;97898;-70
2022/05/05 08:43:11;;;;;;;9.20;3.80;;;;;;;20.08;30.04;99415.45;105577;1284;95201;-69
2022/05/05 08:45:42;;;;;;;8.80;3.40;;;;;;;19.99;29.84;99415.28;105106;1284;111105;-71
2022/05/05 08:48:14;;;;;;;3.70;2.50;;;;;;;20.00;29.71;99417.58;105519;1284;96317;-70
2022/05/05 08:50:46;;;;;;;7.80;3.10;;;;;;;20.13;29.49;99414.20;105500;1283;108292;-70
2022/05/05 08:53:15;;;;;;;7.20;3.20;;;;;;;20.63;29.36;99412.94;105462;1283;97859;-70
2022/05/05 08:55:45;;;;;;;5.20;2.80;;;;;;;21.26;29.13;99408.77;105591;1284;97908;-70
2022/05/05 08:58:13;;;;;;;6.30;3.20;;;;;;;21.90;29.35;99404.09;105660;1283;111482;-72
2022/05/05 09:00:41;;;;;;;4.20;2.50;;;;;;;22.76;29.71;99396.64;105576;1282;96467;-70
2022/05/05 09:03:11;;;;;;;5.50;3.00;;;;;;;23.74;29.68;99392.52;105580;1284;107619;-71
2022/05/05 09:05:42;;;;;;;4.60;2.60;;;;;;;24.71;29.95;99392.34;105623;1282;98008;-71
2022/05/05 09:08:33;;;;;;;4.10;2.90;;;;;;;25.48;29.72;99396.09;105577;1284;95300;-71
2022/05/05 09:11:06;;;;;;;5.90;3.00;;;;;;;26.21;29.56;99396.88;105509;1281;111320;-71
2022/05/05 09:13:37;;;;;;;5.90;2.80;;;;;;;26.90;29.81;99393.80;105554;1283;98256;-71
2022/05/05 09:16:06;;;;;;;8.40;3.30;;;;;;;27.29;29.21;99398.98;105519;1284;106266;-70
2022/05/05 09:18:36;;;;;;;9.30;3.20;;;;;;;27.48;29.58;99398.20;105574;1284;97904;-71
2022/05/05 09:21:08;;;;;;;8.20;2.90;;;;;;;28.14;29.86;99394.83;105636;1283;95187;-69
2022/05/05 09:26:31;;;;;;;8.40;3.50;;;;;;;29.34;29.65;99398.50;105453;1284;99567;-70
2022/05/05 09:29:19;;;;;;;5.20;2.70;;;;;;;29.87;29.66;99393.52;105370;1282;107849;-71
2022/05/05 09:31:48;;;;;;;9.90;3.10;;;;;;;30.56;29.78;99399.38;105260;1284;97886;-71
2022/05/05 09:34:19;;;;;;;10.90;3.60;;;;;;;31.16;29.66;99393.08;105884;1284;95797;-72
2022/05/05 09:36:47;;;;;;;8.40;2.90;;;;;;;31.62;29.67;99389.23;105323;1283;111615;-71
2022/05/05 09:39:20;;;;;;;6.50;2.90;;;;;;;32.12;29.46;99383.75;105861;1283;96270;-72
2022/05/05 09:41:49;;;;;;;5.50;2.90;;;;;;;32.52;29.30;99387.64;105190;1284;107830;-70
2022/05/05 09:44:21;;;;;;;8.30;3.10;;;;;;;32.56;28.83;99387.45;105515;1282;97995;-72
2022/05/05 09:46:49;;;;;;;5.40;3.10;;;;;;;31.95;28.61;99380.23;105450;1283;97864;-71
2022/05/05 09:49:19;;;;;;;5.50;3.20;;;;;;;32.22;28.84;99378.72;105482;1283;111343;-71
2022/05/05 09:57:43;;;;;;;10.80;4.10;;;;;;;31.15;27.49;99383.02;106867;1283;95848;-71
2022/05/05 10:05:59;;;;;;;9.00;3.30;;;;;;;27.26;24.87;99389.80;105366;1284;97958;-71
2022/05/05 10:08:50;;;;;;;6.30;3.00;;;;;;;26.52;25.88;99390.10;105558;1283;108324;-71
2022/05/05 10:11:19;;;;;;;7.60;3.30;;;;;;;26.44;25.95;99385.30;105488;1283;96512;-71
2022/05/05 10:13:51;;;;;;;8.10;3.00;;;;;;;26.49;26.22;99382.95;105506;1281;97171;-71
2022/05/05 10:16:24;;;;;;;6.70;3.30;;;;;;;26.59;26.37;99372.52;105530;1284;112075;-71
2022/05/05 10:18:52;;;;;;;6.10;2.90;;;;;;;26.70;26.33;99370.38;105586;1281;98201;-69
2022/05/05 10:21:42;;;;;;;5.70;3.30;;;;;;;26.81;26.54;99367.76;105590;1281;108399;-71
2022/05/05 10:24:19;;;;;;;10.10;3.80;;;;;;;26.92;26.35;99364.64;105554;1281;95967;-71
2022/05/05 10:26:58;;;;;;;9.70;4.10;;;;;;;26.91;26.03;99364.86;105576;1284;96412;-72
2022/05/05 10:29:32;;;;;;;5.50;3.50;;;;;;;26.27;24.94;99370.36;105543;1284;111394;-72
2022/05/05 10:32:10;;;;;;;5.30;3.10;;;;;;;25.47;25.36;99370.24;105508;1283;97648;-71
2022/05/05 10:34:51;;;;;;;13.10;3.90;;;;;;;25.10;25.23;99370.68;105556;1281;107941;-69
2022/05/05 10:37:37;;;;;;;7.70;3.40;;;;;;;24.78;25.29;99367.52;105570;1283;97974;-70
2022/05/05 10:40:10;;;;;;;8.10;3.30;;;;;;;24.47;25.43;99367.23;105659;1283;97881;-70
2022/05/05 10:42:43;;;;;;;9.00;3.70;;;;;;;24.46;25.52;99360.50;105553;1283;111450;-70
2022/05/05 10:45:24;;;;;;;7.80;3.70;;;;;;;24.65;25.63;99366.64;105303;1284;97924;-70
2022/05/05 10:47:55;;;;;;;6.10;3.10;;;;;;;24.62;25.41;99358.42;105540;1283;107780;-71
2022/05/05 10:50:33;;;;;;;10.20;3.80;;;;;;;24.59;25.23;99363.29;105562;1283;97899;-70
2022/05/05 10:53:06;;;;;;;10.10;3.60;;;;;;;24.21;25.19;99363.34;105570;1281;97906;-71
2022/05/05 10:55:49;;;;;;;16.20;3.70;;;;;;;23.89;25.15;99361.69;105584;1281;111409;-71
2022/05/05 10:59:02;;;;;;;8.70;3.50;;;;;;;23.68;25.49;99356.04;105465;1282;98091;-71
2022/05/05 11:01:59;;;;;;;10.80;4.20;;;;;;;23.60;25.12;99351.52;105663;1281;108136;-71
2022/05/05 11:04:29;;;;;;;9.40;4.10;;;;;;;23.10;25.18;99352.97;105455;1283;95291;-71
2022/05/05 18:43:57;;;;;;;14.50;6.60;;;;;;;18.08;39.26;99388.77;105428;1270;110063;-70
2022/05/05 18:46:25;;;;;;;16.10;7.50;;;;;;;18.05;39.34;99391.89;105303;1283;96057;-69
2022/05/05 18:48:53;;;;;;;17.70;7.70;;;;;;;18.01;39.45;99394.27;105503;1283;97966;-69
2022/05/05 18:51:21;;;;;;;21.10;7.00;;;;;;;17.97;39.61;99398.89;105516;1281;112502;-70
2022/05/05 18:53:51;;;;;;;21.60;7.80;;;;;;;17.93;39.63;99401.42;105501;1283;97945;-68
2022/05/05 18:56:18;;;;;;;22.90;9.30;;;;;;;17.85;39.89;99405.25;105473;1283;108254;-72
2022/05/05 18:58:47;;;;;;;22.20;10.20;;;;;;;17.76;39.54;99402.58;105460;1283;98010;-70
2022/05/05 19:01:19;;;;;;;25.20;11.80;;;;;;;17.72;40.04;99407.98;105609;1283;98007;-69
2022/05/05 19:03:48;;;;;;;29.90;14.60;;;;;;;17.68;39.88;99405.27;105601;1283;112235;-69
2022/05/05 19:06:16;;;;;;;28.00;15.50;;;;;;;17.59;39.88;99404.73;105504;1283;97867;-68
2022/05/05 19:08:44;;;;;;;28.70;13.80;;;;;;;17.53;40.20;99404.06;105581;1282;107965;-67
2022/05/05 19:11:12;;;;;;;29.60;14.60;;;;;;;17.49;40.13;99409.65;105449;1283;96969;-67
2022/05/05 19:13:40;;;;;;;27.70;13.60;;;;;;;17.47;40.24;99409.88;105546;1283;97983;-69
2022/05/05 19:16:10;;;;;;;27.80;12.10;;;;;;;17.44;40.29;99411.39;105663;1283;111473;-68
2022/05/05 19:18:38;;;;;;;24.60;12.00;;;;;;;17.42;40.56;99414.77;105637;1283;97919;-68
2022/05/05 19:21:06;;;;;;;26.90;11.80;;;;;;;17.39;40.71;99410.20;105660;1283;107803;-69
2022/05/05 19:23:36;;;;;;;21.10;9.70;;;;;;;17.36;40.78;99411.81;105590;1283;97870;-70
2022/05/05 19:26:05;;;;;;;21.20;10.30;;;;;;;17.30;41.00;99412.21;105367;1283;97944;-69
2022/05/05 19:28:33;;;;;;;23.40;10.80;;;;;;;17.25;40.88;99412.61;105577;1281;112170;-70
2022/05/05 19:31:05;;;;;;;21.70;11.00;;;;;;;17.21;41.04;99407.27;105530;1282;98041;-70
2022/05/05 19:33:37;;;;;;;22.70;11.10;;;;;;;17.18;40.96;99407.20;105476;1283;107848;-68
2022/05/05 19:36:07;;;;;;;21.70;9.90;;;;;;;17.16;41.34;99405.02;105587;1283;97978;-70
2022/05/05 19:38:37;;;;;;;19.60;9.80;;;;;;;17.14;41.35;99405.43;105525;1282;97954;-69
2022/05/05 19:41:04;;;;;;;21.80;9.60;;;;;;;17.11;41.22;99410.36;105587;1283;111475;-69
2022/05/05 19:43:36;;;;;;;20.90;9.80;;;;;;;17.08;41.23;99413.67;106738;1282;97889;-68
2022/05/05 19:46:06;;;;;;;19.50;8.80;;;;;;;17.04;41.60;99418.20;105411;1283;108333;-69